sensor_id;sensor_type;location;lat;lon;timestamp;temperature;humidity
43607;DHT22;29197;44.788;10.366;2023-07-16T07:10:35;29.90;99.90
43607;DHT22;29197;44.788;10.366;2023-07-16T07:13:27;30.00;99.90
43607;DHT22;29197;44.788;10.366;2023-07-16T07:16:17;30.10;99.90
43607;DHT22;29197;44.788;10.366;2023-07-16T07:19:05;30.30;99.90
43607;DHT22;29197;44.788;10.366;2023-07-16T07:21:54;30.50;99.90
43607;DHT22;29197;44.788;10.366;2023-07-16T07:24:44;30.50;99.90
43607;DHT22;29197;44.788;10.366;2023-07-16T07:27:33;30.60;99.90
43607;DHT22;29197;44.788;10.366;2023-07-16T07:30:21;30.60;99.90
43607;DHT22;29197;44.788;10.366;2023-07-16T07:33:10;30.60;99.90
43607;DHT22;29197;44.788;10.366;2023-07-16T07:35:58;30.50;99.90
43607;DHT22;29197;44.788;10.366;2023-07-16T07:38:47;30.50;99.90
43607;DHT22;29197;44.788;10.366;2023-07-16T07:41:37;30.50;99.90
43607;DHT22;29197;44.788;10.366;2023-07-16T07:44:25;30.70;99.90
43607;DHT22;29197;44.788;10.366;2023-07-16T07:47:14;30.70;99.90
43607;DHT22;29197;44.788;10.366;2023-07-16T07:50:03;30.70;99.90
43607;DHT22;29197;44.788;10.366;2023-07-16T07:52:51;30.80;99.90
43607;DHT22;29197;44.788;10.366;2023-07-16T07:55:40;31.00;99.90
43607;DHT22;29197;44.788;10.366;2023-07-16T08:01:19;31.20;99.90
43607;DHT22;29197;44.788;10.366;2023-07-16T08:04:08;31.30;99.90
43607;DHT22;29197;44.788;10.366;2023-07-16T08:06:57;31.30;99.90
43607;DHT22;29197;44.788;10.366;2023-07-16T08:09:46;31.20;99.90
43607;DHT22;29197;44.788;10.366;2023-07-16T08:12:34;31.20;99.90
43607;DHT22;29197;44.788;10.366;2023-07-16T08:15:24;31.20;99.90
43607;DHT22;29197;44.788;10.366;2023-07-16T08:18:13;31.30;99.90
43607;DHT22;29197;44.788;10.366;2023-07-16T08:21:02;31.40;99.90
43607;DHT22;29197;44.788;10.366;2023-07-16T08:23:50;31.40;99.90
43607;DHT22;29197;44.788;10.366;2023-07-16T08:26:39;31.40;99.90
43607;DHT22;29197;44.788;10.366;2023-07-16T08:29:27;31.40;99.90
43607;DHT22;29197;44.788;10.366;2023-07-16T08:32:18;31.40;99.90
43607;DHT22;29197;44.788;10.366;2023-07-16T08:35:07;31.40;99.90
43607;DHT22;29197;44.788;10.366;2023-07-16T08:37:59;31.30;99.90
43607;DHT22;29197;44.788;10.366;2023-07-16T08:40:48;31.40;99.90
43607;DHT22;29197;44.788;10.366;2023-07-16T08:43:36;31.40;99.90
43607;DHT22;29197;44.788;10.366;2023-07-16T08:46:26;31.50;99.90
43607;DHT22;29197;44.788;10.366;2023-07-16T08:49:17;31.50;99.90
43607;DHT22;29197;44.788;10.366;2023-07-16T08:52:07;31.50;99.90
43607;DHT22;29197;44.788;10.366;2023-07-16T08:54:57;31.50;99.90
43607;DHT22;29197;44.788;10.366;2023-07-16T08:57:46;31.60;99.90
43607;DHT22;29197;44.788;10.366;2023-07-16T09:00:35;31.60;99.90
43607;DHT22;29197;44.788;10.366;2023-07-16T09:03:24;31.60;99.90
43607;DHT22;29197;44.788;10.366;2023-07-16T09:06:14;31.70;99.90
43607;DHT22;29197;44.788;10.366;2023-07-16T09:09:03;31.70;99.90
43607;DHT22;29197;44.788;10.366;2023-07-16T09:11:52;31.80;99.90
43607;DHT22;29197;44.788;10.366;2023-07-16T09:14:41;31.80;99.90
43607;DHT22;29197;44.788;10.366;2023-07-16T09:17:30;31.80;99.90
43607;DHT22;29197;44.788;10.366;2023-07-16T09:20:18;31.90;99.90
43607;DHT22;29197;44.788;10.366;2023-07-16T09:23:08;31.90;99.90
43607;DHT22;29197;44.788;10.366;2023-07-16T09:25:57;31.90;99.90
43607;DHT22;29197;44.788;10.366;2023-07-16T09:28:48;32.00;99.90
43607;DHT22;29197;44.788;10.366;2023-07-16T09:31:37;32.00;99.90
43607;DHT22;29197;44.788;10.366;2023-07-16T09:34:27;32.10;99.90
43607;DHT22;29197;44.788;10.366;2023-07-16T09:37:18;32.10;99.90
43607;DHT22;29197;44.788;10.366;2023-07-16T09:40:10;32.20;99.90
43607;DHT22;29197;44.788;10.366;2023-07-16T09:43:00;32.20;99.90
43607;DHT22;29197;44.788;10.366;2023-07-16T09:45:49;32.30;99.90
43607;DHT22;29197;44.788;10.366;2023-07-16T09:48:39;32.20;99.90
43607;DHT22;29197;44.788;10.366;2023-07-16T09:51:29;32.30;99.90
43607;DHT22;29197;44.788;10.366;2023-07-16T09:54:20;32.30;99.90
43607;DHT22;29197;44.788;10.366;2023-07-16T09:57:10;32.40;99.90
43607;DHT22;29197;44.788;10.366;2023-07-16T10:00:02;32.50;99.90
43607;DHT22;29197;44.788;10.366;2023-07-16T10:08:33;32.80;99.90
43607;DHT22;29197;44.788;10.366;2023-07-16T10:11:22;32.90;99.90
43607;DHT22;29197;44.788;10.366;2023-07-16T10:14:12;32.90;99.90
43607;DHT22;29197;44.788;10.366;2023-07-16T10:17:02;32.90;99.90
43607;DHT22;29197;44.788;10.366;2023-07-16T10:19:54;33.00;99.90
43607;DHT22;29197;44.788;10.366;2023-07-16T10:22:46;33.10;99.90
43607;DHT22;29197;44.788;10.366;2023-07-16T10:25:35;33.10;99.90
43607;DHT22;29197;44.788;10.366;2023-07-16T10:28:23;33.20;99.90
43607;DHT22;29197;44.788;10.366;2023-07-16T10:31:21;33.20;99.90
43607;DHT22;29197;44.788;10.366;2023-07-16T10:34:10;33.30;99.90
43607;DHT22;29197;44.788;10.366;2023-07-16T10:36:59;33.30;99.90
43607;DHT22;29197;44.788;10.366;2023-07-16T10:39:48;33.30;99.90
43607;DHT22;29197;44.788;10.366;2023-07-16T10:42:37;33.30;99.90
43607;DHT22;29197;44.788;10.366;2023-07-16T10:45:26;33.40;99.90
43607;DHT22;29197;44.788;10.366;2023-07-16T10:48:24;33.50;99.90
43607;DHT22;29197;44.788;10.366;2023-07-16T10:51:14;33.60;99.90
43607;DHT22;29197;44.788;10.366;2023-07-16T10:54:03;33.70;99.90
43607;DHT22;29197;44.788;10.366;2023-07-16T10:56:52;33.80;99.90
43607;DHT22;29197;44.788;10.366;2023-07-16T10:59:41;33.90;99.90
43607;DHT22;29197;44.788;10.366;2023-07-16T11:02:31;33.80;99.90
43607;DHT22;29197;44.788;10.366;2023-07-16T11:05:21;33.80;99.90
43607;DHT22;29197;44.788;10.366;2023-07-16T11:08:10;33.90;99.90
43607;DHT22;29197;44.788;10.366;2023-07-16T11:13:47;34.20;99.90
43607;DHT22;29197;44.788;10.366;2023-07-16T11:16:36;34.40;99.90
43607;DHT22;29197;44.788;10.366;2023-07-16T11:19:26;34.50;99.90
43607;DHT22;29197;44.788;10.366;2023-07-16T11:28:01;34.90;99.90
43607;DHT22;29197;44.788;10.366;2023-07-16T11:30:50;35.10;99.90
43607;DHT22;29197;44.788;10.366;2023-07-16T11:33:42;35.20;99.90
43607;DHT22;29197;44.788;10.366;2023-07-16T11:36:30;35.30;99.90
43607;DHT22;29197;44.788;10.366;2023-07-16T11:39:21;35.50;99.90
43607;DHT22;29197;44.788;10.366;2023-07-16T11:42:12;35.50;99.90
43607;DHT22;29197;44.788;10.366;2023-07-16T11:45:02;35.60;99.90
43607;DHT22;29197;44.788;10.366;2023-07-16T11:47:51;35.50;99.90
43607;DHT22;29197;44.788;10.366;2023-07-16T11:50:39;35.60;99.90
43607;DHT22;29197;44.788;10.366;2023-07-16T11:53:28;35.70;99.90
43607;DHT22;29197;44.788;10.366;2023-07-16T11:56:18;35.90;99.90
43607;DHT22;29197;44.788;10.366;2023-07-16T11:59:07;36.10;99.90
43607;DHT22;29197;44.788;10.366;2023-07-16T12:07:37;36.60;99.90
43607;DHT22;29197;44.788;10.366;2023-07-16T12:10:26;36.60;99.90
43607;DHT22;29197;44.788;10.366;2023-07-16T12:13:16;36.60;99.90
43607;DHT22;29197;44.788;10.366;2023-07-16T12:16:05;36.70;99.90
43607;DHT22;29197;44.788;10.366;2023-07-16T12:18:54;36.80;99.90
43607;DHT22;29197;44.788;10.366;2023-07-16T12:21:42;36.90;99.90
43607;DHT22;29197;44.788;10.366;2023-07-16T12:27:20;37.10;99.90
43607;DHT22;29197;44.788;10.366;2023-07-16T12:30:11;37.20;99.90
43607;DHT22;29197;44.788;10.366;2023-07-16T12:32:59;37.20;99.80
43607;DHT22;29197;44.788;10.366;2023-07-16T12:35:48;37.40;99.30
43607;DHT22;29197;44.788;10.366;2023-07-16T12:38:37;37.50;98.60
43607;DHT22;29197;44.788;10.366;2023-07-16T12:41:25;37.50;98.80
43607;DHT22;29197;44.788;10.366;2023-07-16T12:47:05;37.70;98.00
43607;DHT22;29197;44.788;10.366;2023-07-16T12:49:56;37.70;98.60
43607;DHT22;29197;44.788;10.366;2023-07-16T12:55:33;37.90;97.90
43607;DHT22;29197;44.788;10.366;2023-07-16T12:58:22;38.00;97.70
43607;DHT22;29197;44.788;10.366;2023-07-16T13:01:10;38.00;98.40
43607;DHT22;29197;44.788;10.366;2023-07-16T13:04:01;38.10;98.60
43607;DHT22;29197;44.788;10.366;2023-07-16T13:06:49;38.20;98.10
43607;DHT22;29197;44.788;10.366;2023-07-16T13:09:38;38.30;98.20
43607;DHT22;29197;44.788;10.366;2023-07-16T13:12:26;38.20;97.40
43607;DHT22;29197;44.788;10.366;2023-07-16T13:15:15;38.00;97.50
43607;DHT22;29197;44.788;10.366;2023-07-16T13:18:04;38.00;98.00
43607;DHT22;29197;44.788;10.366;2023-07-16T13:20:54;38.10;97.10
43607;DHT22;29197;44.788;10.366;2023-07-16T13:23:42;38.10;97.60
43607;DHT22;29197;44.788;10.366;2023-07-16T13:26:31;38.00;97.50
43607;DHT22;29197;44.788;10.366;2023-07-16T13:29:20;38.00;97.70
43607;DHT22;29197;44.788;10.366;2023-07-16T13:32:08;38.20;97.50
43607;DHT22;29197;44.788;10.366;2023-07-16T13:34:57;38.30;97.80
43607;DHT22;29197;44.788;10.366;2023-07-16T13:37:47;38.30;97.30
43607;DHT22;29197;44.788;10.366;2023-07-16T13:40:35;38.40;97.30
43607;DHT22;29197;44.788;10.366;2023-07-16T13:43:24;38.50;97.20
43607;DHT22;29197;44.788;10.366;2023-07-16T13:46:13;38.50;97.50
43607;DHT22;29197;44.788;10.366;2023-07-16T13:49:02;38.30;98.00
43607;DHT22;29197;44.788;10.366;2023-07-16T13:51:51;38.40;97.30
43607;DHT22;29197;44.788;10.366;2023-07-16T13:54:41;38.40;96.70
43607;DHT22;29197;44.788;10.366;2023-07-16T13:57:30;38.30;96.30
43607;DHT22;29197;44.788;10.366;2023-07-16T14:00:18;38.30;96.20
43607;DHT22;29197;44.788;10.366;2023-07-16T14:03:07;38.20;95.90
43607;DHT22;29197;44.788;10.366;2023-07-16T14:05:55;38.20;96.10
43607;DHT22;29197;44.788;10.366;2023-07-16T14:08:44;38.00;96.80
43607;DHT22;29197;44.788;10.366;2023-07-16T14:11:34;38.10;96.40
43607;DHT22;29197;44.788;10.366;2023-07-16T14:14:23;37.90;96.40
43607;DHT22;29197;44.788;10.366;2023-07-16T14:17:11;37.70;96.10
43607;DHT22;29197;44.788;10.366;2023-07-16T14:20:00;38.10;96.80
43607;DHT22;29197;44.788;10.366;2023-07-16T14:22:49;38.20;96.10
43607;DHT22;29197;44.788;10.366;2023-07-16T14:25:37;38.00;96.30
43607;DHT22;29197;44.788;10.366;2023-07-16T14:28:28;38.00;96.60
43607;DHT22;29197;44.788;10.366;2023-07-16T14:31:16;38.10;96.20
43607;DHT22;29197;44.788;10.366;2023-07-16T14:34:05;38.00;95.90
43607;DHT22;29197;44.788;10.366;2023-07-16T14:36:54;37.90;96.40
43607;DHT22;29197;44.788;10.366;2023-07-16T14:39:42;37.90;96.60
43607;DHT22;29197;44.788;10.366;2023-07-16T14:42:31;37.90;96.40
43607;DHT22;29197;44.788;10.366;2023-07-16T14:45:21;38.00;96.60
43607;DHT22;29197;44.788;10.366;2023-07-16T14:48:09;38.10;96.40
43607;DHT22;29197;44.788;10.366;2023-07-16T14:50:58;38.00;96.40
43607;DHT22;29197;44.788;10.366;2023-07-16T14:53:47;37.90;96.00
43607;DHT22;29197;44.788;10.366;2023-07-16T14:56:35;37.90;96.60
43607;DHT22;29197;44.788;10.366;2023-07-16T14:59:24;37.80;96.80
43607;DHT22;29197;44.788;10.366;2023-07-16T15:02:14;37.80;96.20
43607;DHT22;29197;44.788;10.366;2023-07-16T15:05:03;37.60;96.30
43607;DHT22;29197;44.788;10.366;2023-07-16T15:07:53;37.40;96.40
43607;DHT22;29197;44.788;10.366;2023-07-16T15:10:41;37.30;96.10
43607;DHT22;29197;44.788;10.366;2023-07-16T15:13:31;37.40;96.30
43607;DHT22;29197;44.788;10.366;2023-07-16T15:16:20;37.40;96.70
43607;DHT22;29197;44.788;10.366;2023-07-16T15:19:10;37.50;96.40
43607;DHT22;29197;44.788;10.366;2023-07-16T15:21:58;37.40;96.90
43607;DHT22;29197;44.788;10.366;2023-07-16T15:24:47;37.40;97.10
43607;DHT22;29197;44.788;10.366;2023-07-16T15:27:36;37.40;97.10
43607;DHT22;29197;44.788;10.366;2023-07-16T15:30:25;37.30;97.10
43607;DHT22;29197;44.788;10.366;2023-07-16T15:33:14;37.20;96.70
43607;DHT22;29197;44.788;10.366;2023-07-16T15:36:04;37.20;97.10
43607;DHT22;29197;44.788;10.366;2023-07-16T15:38:53;37.10;97.30
43607;DHT22;29197;44.788;10.366;2023-07-16T15:41:41;37.10;97.00
43607;DHT22;29197;44.788;10.366;2023-07-16T15:44:30;37.10;97.60
43607;DHT22;29197;44.788;10.366;2023-07-16T15:47:19;37.10;97.00
43607;DHT22;29197;44.788;10.366;2023-07-16T15:50:08;36.90;97.70
43607;DHT22;29197;44.788;10.366;2023-07-16T15:52:58;36.90;97.50
43607;DHT22;29197;44.788;10.366;2023-07-16T15:55:48;36.90;97.10
43607;DHT22;29197;44.788;10.366;2023-07-16T15:58:36;37.00;96.90
43607;DHT22;29197;44.788;10.366;2023-07-16T16:01:26;37.00;96.50
43607;DHT22;29197;44.788;10.366;2023-07-16T16:04:15;36.90;96.90
43607;DHT22;29197;44.788;10.366;2023-07-16T16:07:04;36.50;96.60
43607;DHT22;29197;44.788;10.366;2023-07-16T16:09:54;36.80;96.40
43607;DHT22;29197;44.788;10.366;2023-07-16T16:12:42;36.80;96.90
43607;DHT22;29197;44.788;10.366;2023-07-16T16:15:31;36.80;97.80
43607;DHT22;29197;44.788;10.366;2023-07-16T16:18:22;36.80;98.60
43607;DHT22;29197;44.788;10.366;2023-07-16T16:21:11;36.80;97.80
43607;DHT22;29197;44.788;10.366;2023-07-16T16:24:00;36.70;98.30
43607;DHT22;29197;44.788;10.366;2023-07-16T16:26:50;36.70;98.30
43607;DHT22;29197;44.788;10.366;2023-07-16T16:29:39;36.70;98.70
43607;DHT22;29197;44.788;10.366;2023-07-16T16:32:28;36.70;98.30
43607;DHT22;29197;44.788;10.366;2023-07-16T16:35:16;36.70;98.50
43607;DHT22;29197;44.788;10.366;2023-07-16T16:38:05;36.60;98.80
43607;DHT22;29197;44.788;10.366;2023-07-16T16:40:54;36.60;96.60
43607;DHT22;29197;44.788;10.366;2023-07-16T16:43:52;36.40;96.00
43607;DHT22;29197;44.788;10.366;2023-07-16T16:46:41;36.30;95.50
43607;DHT22;29197;44.788;10.366;2023-07-16T16:49:30;36.20;95.90
43607;DHT22;29197;44.788;10.366;2023-07-16T16:52:20;36.10;95.90
43607;DHT22;29197;44.788;10.366;2023-07-16T16:55:08;35.80;95.80
43607;DHT22;29197;44.788;10.366;2023-07-16T16:57:57;35.60;95.90
43607;DHT22;29197;44.788;10.366;2023-07-16T17:00:47;35.40;96.10
43607;DHT22;29197;44.788;10.366;2023-07-16T17:03:39;35.30;96.30
43607;DHT22;29197;44.788;10.366;2023-07-16T17:06:27;35.30;96.30
43607;DHT22;29197;44.788;10.366;2023-07-16T17:09:16;35.20;96.50
43607;DHT22;29197;44.788;10.366;2023-07-16T17:12:06;35.20;96.50
43607;DHT22;29197;44.788;10.366;2023-07-16T17:14:56;35.10;96.50
43607;DHT22;29197;44.788;10.366;2023-07-16T17:17:46;35.10;96.70
43607;DHT22;29197;44.788;10.366;2023-07-16T17:20:34;35.00;96.10
43607;DHT22;29197;44.788;10.366;2023-07-16T17:23:23;35.00;96.30
43607;DHT22;29197;44.788;10.366;2023-07-16T17:26:12;35.00;96.40
43607;DHT22;29197;44.788;10.366;2023-07-16T17:29:00;35.00;96.40
43607;DHT22;29197;44.788;10.366;2023-07-16T17:31:49;34.90;96.70
43607;DHT22;29197;44.788;10.366;2023-07-16T17:34:39;34.70;99.90
43607;DHT22;29197;44.788;10.366;2023-07-16T17:37:29;34.60;98.90
43607;DHT22;29197;44.788;10.366;2023-07-16T17:40:18;34.50;99.90
43607;DHT22;29197;44.788;10.366;2023-07-16T17:43:07;34.50;99.90
43607;DHT22;29197;44.788;10.366;2023-07-16T17:45:56;34.40;99.90
43607;DHT22;29197;44.788;10.366;2023-07-16T17:48:44;34.20;97.50
43607;DHT22;29197;44.788;10.366;2023-07-16T17:51:34;34.20;97.50
43607;DHT22;29197;44.788;10.366;2023-07-16T17:54:24;34.20;97.70
43607;DHT22;29197;44.788;10.366;2023-07-16T17:57:13;34.10;97.60
43607;DHT22;29197;44.788;10.366;2023-07-16T18:00:01;34.20;97.80
43607;DHT22;29197;44.788;10.366;2023-07-16T18:03:09;34.10;97.90
43607;DHT22;29197;44.788;10.366;2023-07-16T18:05:58;34.00;98.10
43607;DHT22;29197;44.788;10.366;2023-07-16T18:08:48;34.10;97.80
43607;DHT22;29197;44.788;10.366;2023-07-16T18:11:37;33.90;99.80
43607;DHT22;29197;44.788;10.366;2023-07-16T18:14:29;33.90;99.90
43607;DHT22;29197;44.788;10.366;2023-07-16T18:20:07;33.70;99.90
43607;DHT22;29197;44.788;10.366;2023-07-16T18:22:58;33.70;99.90
43607;DHT22;29197;44.788;10.366;2023-07-16T18:25:49;33.60;99.90
